Time;durP1;ratioP1;P1;durP2;ratioP2;P2;SDS_P1;SDS_P2;PMS_P1;PMS_P2;Temp;Humidity;BMP_temperature;BMP_pressure;BME280_temperature;BME280_humidity;BME280_pressure;Samples;Min_cycle;Max_cycle;Signal;HPM_P1;HPM_P2
2021/11/20 00:01:17;;;;;;;3.88;1.55;;;;;;;19.73;51.48;102858.13;5099250;28;20032;-69
2021/11/20 00:03:45;;;;;;;3.15;1.30;;;;;;;19.71;51.26;102852.06;5093973;28;20020;-69
2021/11/20 00:06:13;;;;;;;2.65;1.42;;;;;;;19.70;51.41;102842.41;5093408;28;20020;-69
2021/11/20 00:08:38;;;;;;;2.47;1.33;;;;;;;19.68;51.32;102844.31;5093467;28;20031;-69
2021/11/20 00:11:07;;;;;;;2.63;1.23;;;;;;;19.69;51.39;102838.09;5093482;28;20390;-69
2021/11/20 00:13:33;;;;;;;2.95;1.45;;;;;;;19.67;51.40;102834.66;5093143;28;20040;-69
2021/11/20 00:16:00;;;;;;;3.85;1.60;;;;;;;19.66;51.38;102838.25;5092286;28;20032;-70
2021/11/20 00:18:26;;;;;;;2.97;1.73;;;;;;;19.65;51.17;102839.19;5092808;28;20330;-71
2021/11/20 00:20:58;;;;;;;3.30;1.60;;;;;;;19.65;51.14;102839.19;5094160;28;20035;-69
2021/11/20 00:23:31;;;;;;;3.50;1.70;;;;;;;19.64;50.91;102839.25;5093712;28;20047;-69
2021/11/20 00:25:59;;;;;;;2.50;1.20;;;;;;;19.64;51.19;102837.47;5093225;28;20051;-70
2021/11/20 00:28:42;;;;;;;3.22;1.50;;;;;;;19.63;50.85;102841.06;5093917;28;20031;-70
2021/11/20 00:31:17;;;;;;;2.83;1.50;;;;;;;19.60;50.92;102835.94;5093554;28;20064;-71
2021/11/20 00:33:44;;;;;;;3.42;1.60;;;;;;;19.60;51.00;102835.94;5092526;28;20099;-71
2021/11/20 00:36:10;;;;;;;3.95;1.70;;;;;;;19.60;50.95;102833.31;5093520;28;20028;-69
2021/11/20 00:38:36;;;;;;;3.53;1.65;;;;;;;19.59;50.97;102839.53;5093396;28;20015;-69
2021/11/20 00:41:13;;;;;;;3.55;1.70;;;;;;;19.57;51.07;102830.84;5092793;28;20080;-69
2021/11/20 00:43:41;;;;;;;3.30;1.77;;;;;;;19.56;50.97;102823.81;5093043;28;20035;-69
2021/11/20 00:46:07;;;;;;;4.18;1.80;;;;;;;19.56;50.96;102834.41;5093381;28;20055;-68
2021/11/20 00:48:33;;;;;;;3.20;1.67;;;;;;;19.53;50.87;102834.56;5092345;28;20032;-68
2021/11/20 00:51:03;;;;;;;3.20;1.83;;;;;;;19.55;51.25;102822.97;5093133;28;20158;-69
2021/11/20 00:53:28;;;;;;;3.67;1.88;;;;;;;19.51;51.04;102829.38;5092347;28;20078;-70
2021/11/20 00:55:55;;;;;;;3.15;1.80;;;;;;;19.51;50.83;102831.16;5093388;28;20023;-70
2021/11/20 00:58:20;;;;;;;4.78;2.10;;;;;;;19.50;50.79;102818.88;5093363;28;20517;-69
2021/11/20 01:00:50;;;;;;;4.03;2.05;;;;;;;19.51;50.86;102823.25;5092307;28;20228;-69
2021/11/20 01:03:16;;;;;;;3.35;2.00;;;;;;;19.49;50.60;102823.31;5092928;28;20059;-69
2021/11/20 01:05:42;;;;;;;3.28;2.00;;;;;;;19.48;51.12;102812.81;5092960;28;20020;-70
2021/11/20 01:08:09;;;;;;;2.85;1.77;;;;;;;19.48;50.77;102816.31;5092646;28;20012;-70
2021/11/20 01:10:38;;;;;;;3.65;2.10;;;;;;;19.46;50.99;102820.00;5093201;28;20112;-70
2021/11/20 01:13:04;;;;;;;5.18;2.05;;;;;;;19.45;50.57;102816.47;5093167;28;20039;-70
2021/11/20 01:15:43;;;;;;;3.70;1.90;;;;;;;19.47;50.91;102813.75;5092467;28;20028;-70
2021/11/20 01:18:10;;;;;;;3.35;2.00;;;;;;;19.44;50.64;102806.88;5093914;28;20040;-70
2021/11/20 01:20:36;;;;;;;3.72;2.22;;;;;;;19.43;50.39;102807.78;5093430;28;20459;-70
2021/11/20 01:23:02;;;;;;;3.65;2.05;;;;;;;19.44;50.51;102803.34;5093062;28;20024;-69
2021/11/20 01:25:29;;;;;;;5.07;2.22;;;;;;;19.42;50.47;102798.16;5093516;28;20024;-69
2021/11/20 01:27:54;;;;;;;4.00;2.28;;;;;;;19.42;50.44;102800.78;5099222;28;20391;-69
2021/11/20 01:30:19;;;;;;;3.90;2.30;;;;;;;19.40;50.48;102798.22;5100382;28;20020;-70
2021/11/20 01:32:45;;;;;;;4.30;2.38;;;;;;;19.40;50.37;102803.53;5100856;28;20161;-69
2021/11/20 01:35:11;;;;;;;3.85;2.20;;;;;;;19.40;50.39;102800.88;5100803;28;20028;-69
2021/11/20 01:37:38;;;;;;;5.15;2.50;;;;;;;19.40;50.39;102792.09;5099941;28;20024;-68
2021/11/20 01:40:08;;;;;;;4.75;2.60;;;;;;;19.39;50.36;102800.97;5101100;28;20470;-69
2021/11/20 01:42:33;;;;;;;4.82;2.55;;;;;;;19.39;50.48;102798.31;5099700;28;20559;-70
2021/11/20 01:45:03;;;;;;;4.60;2.47;;;;;;;19.38;50.54;102788.69;5100907;28;20047;-68
2021/11/20 01:47:45;;;;;;;5.35;2.65;;;;;;;19.37;50.46;102781.69;5100970;28;20032;-69
2021/11/20 01:50:16;;;;;;;4.75;2.60;;;;;;;19.36;50.29;102778.22;5100346;28;20024;-68
2021/11/20 01:53:02;;;;;;;4.70;3.10;;;;;;;19.35;50.38;102779.13;5101191;28;20049;-70
2021/11/20 01:55:39;;;;;;;4.60;2.78;;;;;;;19.37;50.17;102781.69;5100693;28;20028;-70
2021/11/20 01:58:22;;;;;;;5.10;3.10;;;;;;;19.36;50.08;102775.56;5100271;28;20498;-70
2021/11/20 02:01:07;;;;;;;5.00;3.17;;;;;;;19.35;50.17;102759.78;5100455;28;20040;-69
2021/11/20 02:03:43;;;;;;;4.97;2.90;;;;;;;19.34;50.20;102761.59;5100188;28;20498;-70
2021/11/20 02:06:15;;;;;;;4.93;2.95;;;;;;;19.34;50.34;102764.22;5100518;28;20385;-69
2021/11/20 02:09:25;;;;;;;6.68;3.20;;;;;;;19.32;50.17;102762.59;5099033;28;20093;-69
2021/11/20 02:11:56;;;;;;;4.65;3.03;;;;;;;19.31;50.37;102743.25;5095274;28;20533;-70
2021/11/20 02:14:23;;;;;;;5.25;3.35;;;;;;;19.31;50.10;102747.66;5099203;28;20051;-69
2021/11/20 02:17:12;;;;;;;5.95;3.53;;;;;;;19.30;50.22;102740.69;5098669;28;20372;-69
2021/11/20 02:19:42;;;;;;;5.60;3.53;;;;;;;19.29;50.31;102745.09;5097748;28;20080;-69
2021/11/20 02:22:41;;;;;;;5.07;3.20;;;;;;;19.29;50.22;102750.41;5098716;28;20395;-69
2021/11/20 02:25:06;;;;;;;5.88;3.42;;;;;;;19.29;49.96;102749.56;5098168;28;20024;-70
2021/11/20 02:27:35;;;;;;;5.82;3.60;;;;;;;19.27;50.08;102740.88;5098637;28;20111;-70
2021/11/20 02:30:18;;;;;;;5.97;3.75;;;;;;;19.27;50.02;102735.59;5098858;28;20074;-70
2021/11/20 02:32:47;;;;;;;5.83;3.60;;;;;;;19.26;50.16;102750.56;5097710;28;20119;-70
2021/11/20 02:35:14;;;;;;;5.63;3.78;;;;;;;19.27;50.16;102748.78;5098493;28;20028;-70
2021/11/20 02:37:41;;;;;;;5.90;3.90;;;;;;;19.26;50.30;102747.94;5097907;28;20027;-70
2021/11/20 02:40:08;;;;;;;5.55;3.53;;;;;;;19.25;50.28;102751.53;5094402;28;20024;-70
2021/11/20 02:42:34;;;;;;;6.25;3.67;;;;;;;19.24;50.04;102741.88;5094932;28;20031;-70
2021/11/20 02:44:59;;;;;;;5.95;3.97;;;;;;;19.24;50.01;102741.88;5095459;28;20160;-69
2021/11/20 02:47:33;;;;;;;7.32;4.10;;;;;;;19.24;50.00;102738.41;5094556;28;20036;-69
2021/11/20 02:49:58;;;;;;;5.97;3.63;;;;;;;19.24;49.68;102741.88;5095598;28;20020;-69
2021/11/20 02:52:23;;;;;;;5.85;3.70;;;;;;;19.22;50.09;102738.47;5095213;28;20024;-69
2021/11/20 02:54:49;;;;;;;6.57;4.40;;;;;;;19.23;50.22;102737.53;5094332;28;20056;-69
2021/11/20 02:57:30;;;;;;;6.10;4.25;;;;;;;19.22;50.22;102738.47;5095152;28;20024;-69
2021/11/20 02:59:56;;;;;;;6.43;4.00;;;;;;;19.20;50.07;102733.28;5094145;28;20054;-70
2021/11/20 03:02:22;;;;;;;7.32;4.47;;;;;;;19.19;49.98;102731.56;5095333;28;20032;-69
2021/11/20 03:04:47;;;;;;;6.40;4.68;;;;;;;19.20;50.14;102729.75;5094986;28;20051;-70
2021/11/20 03:07:13;;;;;;;6.05;4.18;;;;;;;19.20;50.18;102732.41;5094381;28;20028;-69
2021/11/20 03:09:39;;;;;;;8.50;4.63;;;;;;;19.19;50.21;102728.06;5094472;28;20092;-69
2021/11/20 03:12:09;;;;;;;7.07;5.00;;;;;;;19.18;49.95;102727.22;5094733;28;20054;-70
2021/11/20 03:14:35;;;;;;;7.22;4.78;;;;;;;19.17;49.98;102728.16;5093880;28;20502;-70
2021/11/20 03:17:06;;;;;;;7.70;4.70;;;;;;;19.17;50.17;102730.81;5094668;28;20028;-70
2021/11/20 03:19:36;;;;;;;7.63;4.97;;;;;;;19.16;49.94;102718.50;5094639;28;20471;-69
2021/11/20 03:22:06;;;;;;;7.47;4.70;;;;;;;19.16;49.78;102715.88;5093901;28;20020;-69
2021/11/20 03:24:33;;;;;;;7.53;5.28;;;;;;;19.15;49.97;102719.47;5094247;28;20408;-69
2021/11/20 03:26:59;;;;;;;7.57;4.97;;;;;;;19.15;49.97;102715.97;5094510;28;20024;-69
2021/11/20 03:29:25;;;;;;;7.95;5.13;;;;;;;19.14;50.02;102711.63;5093912;28;20028;-70
2021/11/20 03:31:53;;;;;;;7.93;4.88;;;;;;;19.13;49.84;102712.56;5094104;28;20113;-69
2021/11/20 03:34:20;;;;;;;6.82;5.40;;;;;;;19.13;50.12;102713.41;5094303;28;20027;-69
2021/11/20 03:36:46;;;;;;;6.68;4.93;;;;;;;19.12;49.94;102702.91;5093338;28;20020;-69
2021/11/20 03:39:11;;;;;;;7.07;5.40;;;;;;;19.13;49.84;102702.81;5094322;28;20024;-69
2021/11/20 03:41:37;;;;;;;8.77;6.15;;;;;;;19.12;49.78;102708.19;5093897;28;20024;-69
2021/11/20 03:44:02;;;;;;;7.78;5.50;;;;;;;19.11;49.93;102707.34;5093362;28;20485;-69
2021/11/20 03:46:28;;;;;;;7.50;5.32;;;;;;;19.11;49.81;102706.50;5094071;28;20046;-69
2021/11/20 03:48:53;;;;;;;7.22;5.43;;;;;;;19.10;49.83;102703.00;5094284;28;20044;-70
2021/11/20 03:51:19;;;;;;;7.43;5.63;;;;;;;19.10;49.79;102697.72;5093281;28;20447;-70
2021/11/20 03:53:44;;;;;;;7.13;5.45;;;;;;;19.09;49.84;102701.31;5093850;28;20128;-70
2021/11/20 03:56:10;;;;;;;6.97;5.20;;;;;;;19.09;49.43;102703.97;5093507;28;20016;-68
2021/11/20 03:58:35;;;;;;;8.05;5.45;;;;;;;19.07;49.63;102697.03;5093600;28;20020;-69
2021/11/20 04:01:06;;;;;;;7.63;5.32;;;;;;;19.08;49.62;102698.75;5093991;28;20036;-71
2021/11/20 04:03:32;;;;;;;7.72;5.57;;;;;;;19.07;49.78;102695.25;5092897;28;20482;-69
2021/11/20 04:05:58;;;;;;;7.93;5.22;;;;;;;19.07;49.63;102695.25;5093794;28;20463;-69
2021/11/20 04:08:26;;;;;;;7.55;5.35;;;;;;;19.07;49.35;102697.88;5093794;28;20024;-69
2021/11/20 04:10:52;;;;;;;7.50;5.22;;;;;;;19.07;49.54;102694.41;5093055;28;20028;-69
2021/11/20 04:13:18;;;;;;;8.05;5.70;;;;;;;19.06;49.45;102695.31;5093574;28;20044;-68
2021/11/20 04:15:44;;;;;;;7.72;5.53;;;;;;;19.05;49.58;102691.84;5093749;28;20028;-69
2021/11/20 04:18:10;;;;;;;7.43;5.18;;;;;;;19.06;49.72;102690.03;5093170;28;20035;-69
2021/11/20 04:20:35;;;;;;;7.03;5.13;;;;;;;19.03;49.55;102689.28;5093280;28;20016;-69
2021/11/20 04:23:00;;;;;;;7.13;5.30;;;;;;;19.03;49.59;102691.94;5093586;28;20024;-69
2021/11/20 04:25:27;;;;;;;6.90;4.85;;;;;;;19.03;49.42;102689.28;5093018;28;20395;-70
2021/11/20 04:27:53;;;;;;;7.20;5.32;;;;;;;19.02;49.54;102686.72;5093758;28;20145;-70
2021/11/20 04:30:21;;;;;;;7.35;5.05;;;;;;;19.03;49.46;102691.94;5093647;28;20032;-70
2021/11/20 04:32:46;;;;;;;6.57;5.05;;;;;;;19.02;49.43;102689.38;5092795;28;20039;-70
2021/11/20 04:35:13;;;;;;;7.38;5.60;;;;;;;19.02;49.40;102697.28;5093356;28;20399;-70
2021/11/20 04:37:38;;;;;;;6.57;5.20;;;;;;;19.00;49.26;102699.19;5093031;28;20043;-69
2021/11/20 04:40:06;;;;;;;6.78;5.10;;;;;;;19.02;49.30;102699.94;5092544;28;20020;-70
2021/11/20 04:42:31;;;;;;;7.13;4.95;;;;;;;19.01;49.40;102698.25;5093183;28;20119;-69
2021/11/20 04:44:56;;;;;;;6.93;4.55;;;;;;;19.00;49.30;102691.25;5093385;28;20134;-69
2021/11/20 04:47:22;;;;;;;6.78;5.07;;;;;;;18.99;49.20;102690.41;5092739;28;20388;-69
2021/11/20 04:49:47;;;;;;;6.20;5.00;;;;;;;18.99;48.96;102682.50;5092996;28;20483;-69
2021/11/20 04:52:14;;;;;;;6.45;4.85;;;;;;;18.98;49.02;102691.34;5093276;28;20024;-69
2021/11/20 04:54:42;;;;;;;6.75;5.38;;;;;;;18.98;48.97;102690.50;5092705;28;20107;-69
2021/11/20 04:57:07;;;;;;;7.28;5.10;;;;;;;18.98;49.07;102690.50;5093379;28;20020;-70
2021/11/20 04:59:33;;;;;;;6.85;4.95;;;;;;;18.97;48.91;102679.06;5091956;28;20448;-70
2021/11/20 05:01:59;;;;;;;6.78;4.97;;;;;;;18.95;49.10;102670.38;5092754;28;20031;-70
2021/11/20 05:04:25;;;;;;;8.35;5.47;;;;;;;18.95;49.22;102670.38;5093050;28;20146;-69
2021/11/20 05:06:50;;;;;;;6.07;4.95;;;;;;;18.94;49.02;102667.81;5092133;28;20143;-69
2021/11/20 05:09:17;;;;;;;6.43;5.30;;;;;;;18.96;49.04;102673.84;5093087;28;20031;-69
2021/11/20 05:11:44;;;;;;;6.38;5.03;;;;;;;18.95;48.89;102667.72;5092504;28;20031;-68
2021/11/20 05:14:09;;;;;;;5.75;4.28;;;;;;;18.94;48.88;102673.09;5092023;28;20055;-69
2021/11/20 05:16:38;;;;;;;6.20;4.45;;;;;;;18.95;48.81;102672.16;5092330;28;20086;-68
2021/11/20 05:19:03;;;;;;;6.32;4.70;;;;;;;18.94;49.11;102673.09;5092806;28;20059;-70
2021/11/20 05:21:31;;;;;;;6.30;4.80;;;;;;;18.93;49.04;102668.75;5091530;28;20052;-69
2021/11/20 05:23:56;;;;;;;5.95;4.75;;;;;;;18.92;49.02;102664.41;5092549;28;20063;-69
2021/11/20 05:26:22;;;;;;;6.22;4.70;;;;;;;18.91;48.87;102652.97;5092824;28;20028;-69
2021/11/20 05:29:04;;;;;;;5.97;4.55;;;;;;;18.92;48.93;102654.69;5091841;28;20409;-67
2021/11/20 05:31:29;;;;;;;6.68;4.60;;;;;;;18.90;48.54;102653.06;5092424;28;20050;-69
2021/11/20 05:33:55;;;;;;;5.70;4.68;;;;;;;18.91;48.61;102654.78;5092479;28;20131;-68
2021/11/20 05:36:25;;;;;;;6.45;4.88;;;;;;;18.89;48.65;102649.56;5092097;28;20108;-69
2021/11/20 05:38:50;;;;;;;6.45;4.47;;;;;;;18.89;48.59;102649.56;5092350;28;20043;-69
2021/11/20 05:41:16;;;;;;;7.13;4.47;;;;;;;18.88;48.79;102647.03;5092555;28;20071;-69
2021/11/20 05:43:41;;;;;;;5.30;4.35;;;;;;;18.89;48.69;102643.44;5091424;28;20032;-69
2021/11/20 05:46:11;;;;;;;5.78;4.53;;;;;;;18.88;48.74;102642.56;5092267;28;20475;-68
2021/11/20 05:48:36;;;;;;;5.90;4.60;;;;;;;18.89;48.87;102636.38;5092024;28;20040;-69
2021/11/20 05:51:02;;;;;;;6.55;5.15;;;;;;;18.88;48.21;102629.38;5091971;28;20027;-69
2021/11/20 05:53:28;;;;;;;7.75;5.25;;;;;;;18.86;48.54;102633.91;5092165;28;20064;-70
2021/11/20 05:55:56;;;;;;;6.60;4.30;;;;;;;18.88;48.45;102637.28;5091527;28;20455;-69
2021/11/20 05:58:22;;;;;;;6.10;4.53;;;;;;;18.88;48.51;102631.16;5092248;28;20047;-69
2021/11/20 06:00:52;;;;;;;6.45;4.25;;;;;;;18.84;48.42;102626.06;5092033;28;20181;-69
2021/11/20 06:03:19;;;;;;;6.07;4.95;;;;;;;18.86;48.40;102625.97;5091303;28;20040;-69
2021/11/20 06:05:45;;;;;;;5.55;4.50;;;;;;;18.84;48.62;102620.78;5091978;28;20479;-69
2021/11/20 06:08:11;;;;;;;5.40;3.97;;;;;;;18.84;48.44;102615.50;5092461;28;20032;-69
2021/11/20 06:10:39;;;;;;;5.40;4.25;;;;;;;18.83;48.46;102615.53;5091110;28;20027;-70
2021/11/20 06:13:07;;;;;;;5.70;4.22;;;;;;;18.82;48.84;102614.69;5091887;28;20454;-69
2021/11/20 06:15:32;;;;;;;4.95;3.55;;;;;;;18.85;49.18;102616.38;5095623;28;20412;-68
2021/11/20 06:17:58;;;;;;;5.80;3.85;;;;;;;18.85;49.46;102622.50;5095130;28;20486;-69
2021/11/20 06:20:23;;;;;;;4.70;3.38;;;;;;;18.89;49.84;102611.75;5096190;28;20065;-69
2021/11/20 06:22:49;;;;;;;4.40;3.05;;;;;;;18.93;49.58;102615.91;5095653;28;20070;-68
2021/11/20 06:25:15;;;;;;;5.00;3.15;;;;;;;18.94;50.00;102607.06;5095483;28;20077;-68
2021/11/20 06:27:41;;;;;;;4.70;3.20;;;;;;;18.98;49.85;102611.22;5095621;28;20107;-69
2021/11/20 06:30:13;;;;;;;4.55;3.28;;;;;;;19.01;49.80;102614.53;5095760;28;20039;-68
2021/11/20 06:32:40;;;;;;;4.05;2.70;;;;;;;19.06;49.80;102613.41;5094894;28;20035;-69
2021/11/20 06:35:07;;;;;;;4.50;2.90;;;;;;;19.09;49.80;102607.94;5095939;28;20103;-68
2021/11/20 06:37:33;;;;;;;4.10;2.80;;;;;;;19.12;49.62;102607.78;5095330;28;20028;-69
2021/11/20 06:39:58;;;;;;;4.43;2.92;;;;;;;19.13;49.74;102602.41;5095284;28;20016;-68
2021/11/20 06:42:23;;;;;;;4.47;3.08;;;;;;;19.16;49.68;102602.22;5095525;28;20020;-67
2021/11/20 06:44:49;;;;;;;6.35;2.88;;;;;;;19.18;49.62;102603.00;5095155;28;20103;-67
2021/11/20 06:47:14;;;;;;;3.97;2.80;;;;;;;19.20;49.63;102605.53;5094969;28;20039;-70
2021/11/20 06:49:40;;;;;;;3.80;2.60;;;;;;;19.23;49.40;102594.78;5095368;28;20146;-69
2021/11/20 06:52:05;;;;;;;4.70;3.15;;;;;;;19.24;48.94;102607.06;5094879;28;20035;-70
2021/11/20 06:54:31;;;;;;;4.80;3.40;;;;;;;19.25;49.10;102599.97;5095318;28;20095;-68
2021/11/20 06:57:07;;;;;;;4.35;2.95;;;;;;;19.27;49.36;102604.25;5095664;28;20020;-70
2021/11/20 07:02:16;;;;;;;5.03;2.90;;;;;;;19.31;49.17;102600.50;5095415;28;20063;-70
2021/11/20 07:04:42;;;;;;;5.50;2.35;;;;;;;19.34;49.18;102602.09;5095214;28;20329;-70
2021/11/20 07:07:09;;;;;;;3.83;2.45;;;;;;;19.36;49.17;102606.34;5094460;28;20098;-70
2021/11/20 07:09:36;;;;;;;4.45;2.67;;;;;;;19.37;48.93;102602.75;5094944;28;20047;-69
2021/11/20 07:12:04;;;;;;;4.68;2.50;;;;;;;19.40;49.05;102601.72;5094980;28;20044;-70
2021/11/20 07:14:30;;;;;;;3.90;2.50;;;;;;;19.41;49.13;102598.16;5094280;28;20032;-73
2021/11/20 07:16:56;;;;;;;6.05;3.03;;;;;;;19.42;48.87;102594.56;5095022;28;20084;-70
2021/11/20 07:19:22;;;;;;;4.20;2.70;;;;;;;19.43;48.91;102598.91;5095370;28;20039;-69
2021/11/20 07:21:47;;;;;;;5.25;3.08;;;;;;;19.44;48.86;102597.97;5094389;28;20379;-71
2021/11/20 07:24:15;;;;;;;4.50;2.80;;;;;;;19.46;48.69;102595.25;5094294;28;20520;-67
2021/11/20 07:26:43;;;;;;;5.38;2.70;;;;;;;19.46;48.78;102588.16;5094369;28;20034;-66
2021/11/20 07:29:10;;;;;;;4.07;2.60;;;;;;;19.48;48.75;102591.56;5094117;28;20016;-67
2021/11/20 07:31:36;;;;;;;4.30;2.80;;;;;;;19.50;48.74;102580.88;5094158;28;20051;-66
2021/11/20 07:34:01;;;;;;;4.75;2.83;;;;;;;19.51;48.35;102591.38;5094552;28;20024;-67
2021/11/20 07:36:27;;;;;;;6.13;3.53;;;;;;;19.50;49.05;102586.16;5093328;28;20028;-65
2021/11/20 07:38:57;;;;;;;7.07;3.15;;;;;;;19.52;49.02;102595.72;5094473;28;20804;-64
2021/11/20 07:41:28;;;;;;;4.55;2.53;;;;;;;19.53;48.98;102593.91;5093935;28;20020;-65
2021/11/20 07:43:54;;;;;;;5.65;2.55;;;;;;;19.54;49.13;102596.47;5094600;28;20024;-64
2021/11/20 07:46:19;;;;;;;5.15;2.95;;;;;;;19.55;49.03;102595.53;5094486;28;20082;-64
2021/11/20 07:48:46;;;;;;;4.18;2.58;;;;;;;19.55;49.24;102597.31;5093713;28;20487;-66
2021/11/20 07:51:13;;;;;;;4.35;2.60;;;;;;;19.57;49.26;102598.09;5094465;28;20020;-66
2021/11/20 07:53:40;;;;;;;3.70;2.35;;;;;;;19.58;49.36;102594.50;5094096;28;20493;-66
2021/11/20 07:56:06;;;;;;;4.40;2.78;;;;;;;19.59;49.18;102598.84;5093767;28;20101;-67
2021/11/20 07:58:33;;;;;;;5.05;2.80;;;;;;;19.60;49.42;102594.41;5094389;28;20048;-67
2021/11/20 08:00:58;;;;;;;4.28;2.85;;;;;;;19.60;49.18;102586.47;5094466;28;20120;-64
2021/11/20 08:03:24;;;;;;;3.85;2.67;;;;;;;19.60;49.38;102592.63;5093491;28;20118;-65
2021/11/20 08:05:51;;;;;;;4.28;2.90;;;;;;;19.61;49.45;102591.66;5093849;28;20107;-66
2021/11/20 08:08:17;;;;;;;4.53;2.70;;;;;;;19.62;49.49;102589.88;5093754;28;20020;-65
2021/11/20 08:10:42;;;;;;;4.35;2.72;;;;;;;19.62;49.48;102574.88;5092978;28;20027;-65
2021/11/20 08:13:07;;;;;;;5.25;2.88;;;;;;;19.64;49.56;102580.91;5093617;28;20040;-65
2021/11/20 08:15:34;;;;;;;4.50;2.88;;;;;;;19.62;49.59;102582.81;5093411;28;20077;-66
2021/11/20 08:18:00;;;;;;;4.90;2.85;;;;;;;19.64;49.50;102572.13;5092889;28;20016;-66
2021/11/20 08:20:32;;;;;;;4.55;2.97;;;;;;;19.64;49.42;102577.41;5093768;28;20035;-67
2021/11/20 08:22:58;;;;;;;4.43;2.90;;;;;;;19.64;49.34;102566.84;5093553;28;20028;-66
2021/11/20 08:25:26;;;;;;;6.10;2.72;;;;;;;19.63;49.70;102555.41;5092936;28;20095;-66
2021/11/20 08:27:53;;;;;;;4.43;2.90;;;;;;;19.62;49.85;102551.06;5093558;28;20020;-67
2021/11/20 08:30:22;;;;;;;4.53;2.75;;;;;;;19.58;49.48;102541.59;5093471;28;20420;-71
2021/11/20 08:32:49;;;;;;;4.07;3.00;;;;;;;19.61;49.78;102538.78;5092769;28;20031;-68
2021/11/20 08:35:16;;;;;;;4.50;3.05;;;;;;;19.60;49.51;102544.16;5093361;28;20383;-68
2021/11/20 08:37:42;;;;;;;5.13;3.03;;;;;;;19.60;49.53;102533.56;5091847;28;20021;-69
2021/11/20 08:40:09;;;;;;;4.85;3.25;;;;;;;19.60;49.80;102533.56;5093531;28;20024;-69
2021/11/20 08:42:40;;;;;;;6.13;3.60;;;;;;;19.59;49.79;102532.72;5093505;28;20024;-68
2021/11/20 08:45:10;;;;;;;4.97;3.50;;;;;;;19.57;49.78;102535.47;5092582;28;20036;-69
2021/11/20 08:47:37;;;;;;;6.05;3.60;;;;;;;19.57;49.58;102527.53;5093103;28;20028;-69
2021/11/20 08:50:04;;;;;;;6.78;3.58;;;;;;;19.57;49.71;102526.69;5093217;28;20028;-69
2021/11/20 08:52:30;;;;;;;6.20;3.33;;;;;;;19.56;49.77;102525.81;5092393;28;20028;-71
2021/11/20 08:54:56;;;;;;;6.43;4.13;;;;;;;19.57;49.75;102521.41;5093138;28;20027;-68
2021/11/20 08:57:25;;;;;;;8.98;3.83;;;;;;;19.54;50.00;102517.16;5093038;28;20040;-69
2021/11/20 08:59:51;;;;;;;5.20;3.65;;;;;;;19.56;50.08;102525.81;5092048;28;20032;-67
2021/11/20 09:02:23;;;;;;;5.45;3.70;;;;;;;19.56;49.84;102527.63;5092751;28;20119;-70
2021/11/20 09:04:54;;;;;;;5.10;3.40;;;;;;;19.57;49.86;102524.88;5093050;28;20107;-68
2021/11/20 09:07:25;;;;;;;5.45;3.33;;;;;;;19.58;49.94;102529.25;5092466;28;20020;-77
2021/11/20 09:09:58;;;;;;;5.65;3.70;;;;;;;19.64;49.79;102529.81;5094430;28;20084;-79
2021/11/20 09:12:31;;;;;;;6.75;4.20;;;;;;;19.74;49.65;102530.94;5093243;28;20048;-74
2021/11/20 09:15:01;;;;;;;5.80;3.55;;;;;;;19.85;49.32;102525.00;5092003;28;20060;-73
2021/11/20 09:17:27;;;;;;;6.70;3.92;;;;;;;19.91;49.27;102522.00;5092708;28;20032;-72
2021/11/20 09:19:53;;;;;;;5.30;3.70;;;;;;;19.97;48.84;102511.03;5092351;28;20027;-73
2021/11/20 09:22:20;;;;;;;5.53;4.13;;;;;;;20.00;48.84;102516.13;5092819;28;20463;-78
2021/11/20 09:24:46;;;;;;;5.65;3.63;;;;;;;20.02;48.77;102514.22;5092408;28;20028;-69
2021/11/20 09:27:13;;;;;;;6.18;4.35;;;;;;;20.00;48.73;102505.53;5091974;28;20113;-70
2021/11/20 09:29:40;;;;;;;6.68;3.90;;;;;;;19.99;48.58;102510.94;5092304;28;20035;-69
2021/11/20 09:32:07;;;;;;;6.10;4.30;;;;;;;20.01;48.74;102507.25;5092998;28;20032;-70
2021/11/20 09:34:33;;;;;;;8.02;4.05;;;;;;;20.06;48.56;102514.88;5093309;28;20052;-70
2021/11/20 09:36:59;;;;;;;6.88;4.13;;;;;;;20.06;48.48;102512.22;5092388;28;20020;-72
2021/11/20 09:39:29;;;;;;;7.30;5.10;;;;;;;20.04;48.27;102506.19;5092925;28;20024;-71
2021/11/20 09:42:19;;;;;;;7.50;5.00;;;;;;;20.07;48.36;102509.47;5092858;28;20364;-68
2021/11/20 09:44:48;;;;;;;6.40;4.30;;;;;;;20.09;48.23;102518.19;5092715;28;20059;-71
2021/11/20 09:47:22;;;;;;;6.95;4.32;;;;;;;20.09;48.13;102512.91;5092768;28;20036;-69
2021/11/20 09:49:50;;;;;;;6.13;3.83;;;;;;;20.11;48.29;102512.81;5095933;28;20032;-72
2021/11/20 09:52:16;;;;;;;7.45;4.40;;;;;;;20.09;48.33;102501.44;5096601;28;20399;-72
2021/11/20 09:54:44;;;;;;;6.72;3.95;;;;;;;20.10;48.32;102504.00;5096898;28;20494;-69
2021/11/20 09:57:13;;;;;;;6.82;4.03;;;;;;;20.13;48.36;102502.97;5096641;28;20032;-68
2021/11/20 10:03:23;;;;;;;6.80;4.30;;;;;;;20.19;48.16;102493.78;5100172;28;20051;-73
2021/11/20 10:06:01;;;;;;;11.40;5.00;;;;;;;20.23;47.48;102496.13;5096271;28;20085;-70
2021/11/20 10:08:28;;;;;;;7.65;4.78;;;;;;;20.19;47.63;102507.03;5096237;28;20035;-72
2021/11/20 10:11:00;;;;;;;10.00;4.45;;;;;;;20.15;48.05;102501.06;5096040;28;20028;-70
2021/11/20 10:13:31;;;;;;;8.02;4.65;;;;;;;20.11;48.41;102499.56;5096193;28;20148;-65
2021/11/20 10:16:01;;;;;;;7.95;4.07;;;;;;;20.07;48.48;102498.91;5095913;28;20024;-63
2021/11/20 10:18:40;;;;;;;7.00;3.90;;;;;;;20.03;48.68;102488.63;5095824;28;20040;-64
2021/11/20 10:21:08;;;;;;;6.15;3.85;;;;;;;19.98;49.00;102478.34;5095746;28;20039;-65
2021/11/20 10:24:00;;;;;;;6.80;3.88;;;;;;;19.96;49.08;102484.66;5094076;28;20028;-66
2021/11/20 10:27:03;;;;;;;5.82;3.83;;;;;;;19.90;49.37;102470.88;5095768;28;20097;-65
2021/11/20 10:30:00;;;;;;;8.15;4.00;;;;;;;19.88;49.53;102479.84;5095053;28;20379;-64
2021/11/20 10:32:40;;;;;;;5.82;3.90;;;;;;;19.86;49.46;102469.34;5071259;28;20062;-64
2021/11/20 10:35:18;;;;;;;7.47;3.60;;;;;;;19.84;49.78;102460.69;5095192;28;20103;-65
2021/11/20 10:37:52;;;;;;;10.20;3.88;;;;;;;19.81;49.98;102463.50;5093989;28;20046;-62
2021/11/20 10:40:39;;;;;;;10.95;3.80;;;;;;;19.80;50.11;102453.88;5094916;28;20463;-59
2021/11/20 10:43:21;;;;;;;6.72;3.85;;;;;;;19.80;50.18;102445.94;5094676;28;20036;-61
2021/11/20 10:46:22;;;;;;;5.88;3.65;;;;;;;19.78;50.13;102455.78;5093822;28;20028;-64
2021/11/20 10:49:27;;;;;;;9.27;3.42;;;;;;;19.76;50.46;102457.66;5094656;28;20498;-64
2021/11/20 10:51:59;;;;;;;6.53;3.53;;;;;;;19.73;50.39;102452.53;5094259;28;20043;-62
2021/11/20 10:54:39;;;;;;;8.48;3.30;;;;;;;19.75;50.37;102450.63;5094807;28;20031;-62
2021/11/20 10:57:27;;;;;;;8.82;3.40;;;;;;;19.74;50.28;102455.09;5094523;28;20143;-61
2021/11/20 11:00:16;;;;;;;7.90;3.80;;;;;;;19.74;50.51;102441.88;5093000;28;20490;-63
2021/11/20 11:02:59;;;;;;;7.55;3.47;;;;;;;19.75;50.53;102432.13;5094124;28;20043;-62
2021/11/20 11:05:48;;;;;;;6.68;3.40;;;;;;;19.73;50.00;102424.28;5093966;28;20075;-61
2021/11/20 11:08:32;;;;;;;9.40;4.60;;;;;;;19.68;49.11;102414.97;5094944;28;20024;-62
2021/11/20 11:11:04;;;;;;;8.73;3.80;;;;;;;19.64;49.53;102409.00;5094828;28;20036;-64
2021/11/20 11:13:29;;;;;;;6.35;3.78;;;;;;;19.64;50.28;102402.84;5093404;28;20120;-63
2021/11/20 11:16:23;;;;;;;6.97;3.77;;;;;;;19.62;50.21;102405.59;5094867;28;20031;-64
2021/11/20 11:18:53;;;;;;;11.63;4.40;;;;;;;19.62;50.10;102397.66;5094372;28;20024;-63
2021/11/20 11:21:55;;;;;;;8.32;3.58;;;;;;;19.60;50.24;102391.63;5093595;28;20571;-63
2021/11/20 11:24:53;;;;;;;7.50;3.65;;;;;;;19.64;50.50;102387.00;5096801;28;20111;-71
2021/11/20 11:27:30;;;;;;;7.50;3.72;;;;;;;19.68;50.22;102392.00;5094682;28;20039;-75
2021/11/20 11:30:27;;;;;;;9.68;3.50;;;;;;;19.75;49.83;102393.28;5095687;28;20036;-76
2021/11/20 11:32:54;;;;;;;7.60;3.50;;;;;;;19.80;49.70;102385.09;5095368;28;20081;-72
2021/11/20 11:35:38;;;;;;;8.05;3.70;;;;;;;19.79;49.45;102378.13;5094200;28;20016;-69
2021/11/20 11:38:19;;;;;;;8.18;3.47;;;;;;;19.76;49.49;102370.38;5094728;28;20547;-68
2021/11/20 11:40:53;;;;;;;6.30;3.40;;;;;;;19.74;49.63;102369.56;5093702;28;20131;-70
2021/11/20 11:43:46;;;;;;;6.63;3.42;;;;;;;19.73;49.82;102366.09;5094879;28;20036;-70